createdAt,value
2023-02-14T00:01:57.837Z,1.05
2023-02-14T00:04:25.388Z,1.20
2023-02-14T00:06:52.787Z,1.08
2023-02-14T00:09:20.366Z,1.02
2023-02-14T00:11:47.756Z,1.98
2023-02-14T00:14:33.748Z,1.23
2023-02-14T00:17:00.932Z,1.15
2023-02-14T00:19:28.197Z,1.40
2023-02-14T00:21:56.185Z,1.35
2023-02-14T00:24:25.041Z,1.25
2023-02-14T00:26:52.919Z,1.20
2023-02-14T00:29:21.608Z,1.38
2023-02-14T00:31:49.267Z,1.90
2023-02-14T00:34:17.585Z,1.48
2023-02-14T00:36:44.849Z,0.93
2023-02-14T00:39:13.565Z,1.90
2023-02-14T00:41:41.702Z,1.08
2023-02-14T00:44:09.002Z,1.10
2023-02-14T00:46:36.099Z,1.65
2023-02-14T00:49:03.737Z,1.27
2023-02-14T00:51:31.098Z,1.10
2023-02-14T00:53:58.236Z,1.55
2023-02-14T00:56:25.347Z,1.48
2023-02-14T00:58:52.466Z,1.40
2023-02-14T01:01:20.075Z,1.45
2023-02-14T01:03:48.030Z,1.00
2023-02-14T01:06:16.031Z,1.08
2023-02-14T01:08:43.603Z,1.27
2023-02-14T01:11:15.358Z,1.17
2023-02-14T01:13:42.740Z,1.00
2023-02-14T01:16:14.329Z,1.23
2023-02-14T01:18:42.289Z,1.35
2023-02-14T01:21:10.410Z,1.20
2023-02-14T01:23:37.574Z,1.20
2023-02-14T01:26:07.751Z,1.10
2023-02-14T01:28:35.032Z,1.30
2023-02-14T01:31:15.925Z,1.42
2023-02-14T01:33:43.947Z,1.65
2023-02-14T01:36:18.420Z,1.10
2023-02-14T01:38:45.795Z,1.30
2023-02-14T01:41:13.343Z,1.20
2023-02-14T01:44:09.807Z,1.17
2023-02-14T01:46:37.642Z,1.58
2023-02-14T01:49:11.231Z,1.55
2023-02-14T01:51:39.954Z,1.33
2023-02-14T01:54:08.551Z,1.55
2023-02-14T01:56:38.434Z,1.25
2023-02-14T01:59:09.009Z,1.65
2023-02-14T02:01:36.643Z,1.50
2023-02-14T02:04:09.151Z,1.17
2023-02-14T02:06:39.768Z,1.13
2023-02-14T02:09:10.895Z,1.08
2023-02-14T02:11:38.205Z,1.10
2023-02-14T02:14:05.740Z,1.30
2023-02-14T02:16:33.162Z,1.02
2023-02-14T02:19:06.318Z,1.42
2023-02-14T02:21:52.237Z,1.35
2023-02-14T02:24:22.185Z,1.20
2023-02-14T02:27:12.690Z,1.30
2023-02-14T02:29:41.144Z,1.60
2023-02-14T02:32:23.279Z,1.70
2023-02-14T02:35:05.598Z,1.23
2023-02-14T02:37:40.725Z,1.20
2023-02-14T02:40:08.083Z,1.40
2023-02-14T02:43:00.870Z,1.70
2023-02-14T02:45:33.604Z,1.23
2023-02-14T02:48:13.978Z,1.27
2023-02-14T02:51:05.397Z,1.70
2023-02-14T02:53:52.474Z,1.38
2023-02-14T02:56:44.553Z,1.17
2023-02-14T02:59:20.703Z,1.60
2023-02-14T03:01:50.777Z,1.48
2023-02-14T03:04:36.928Z,1.40
2023-02-14T03:07:24.102Z,1.50
2023-02-14T03:09:53.191Z,1.30
2023-02-14T03:12:37.413Z,1.40
2023-02-14T03:15:23.534Z,2.25
2023-02-14T03:17:59.500Z,1.40
2023-02-14T03:20:49.545Z,1.85
2023-02-14T03:23:25.462Z,1.40
2023-02-14T03:26:16.441Z,1.80
2023-02-14T03:28:52.417Z,1.33
2023-02-14T03:31:19.684Z,1.73
2023-02-14T03:33:47.288Z,1.77
2023-02-14T03:36:27.239Z,1.88
2023-02-14T03:39:07.891Z,1.50
2023-02-14T03:41:51.848Z,2.25
2023-02-14T03:44:20.927Z,2.38
2023-02-14T03:46:59.758Z,2.50
2023-02-14T03:49:29.717Z,2.10
2023-02-14T03:51:58.645Z,2.05
2023-02-14T03:54:26.770Z,1.85
2023-02-14T03:56:59.204Z,1.00
2023-02-14T03:59:27.521Z,1.30
2023-02-14T04:01:54.803Z,1.50
2023-02-14T04:04:24.267Z,1.52
2023-02-14T04:06:51.751Z,1.63
2023-02-14T04:09:19.050Z,1.60
2023-02-14T04:11:47.028Z,1.40
2023-02-14T04:14:14.279Z,1.63
2023-02-14T04:16:59.720Z,1.70
2023-02-14T04:19:26.959Z,1.30
2023-02-14T04:21:54.110Z,1.52
2023-02-14T04:24:21.333Z,1.52
2023-02-14T04:26:54.416Z,1.38
2023-02-14T04:29:22.810Z,1.35
2023-02-14T04:31:50.302Z,1.60
2023-02-14T04:34:17.486Z,1.90
2023-02-14T04:36:44.816Z,1.67
2023-02-14T04:39:12.403Z,1.60
2023-02-14T04:41:39.893Z,1.50
2023-02-14T04:44:07.254Z,1.90
2023-02-14T04:46:34.673Z,1.88
2023-02-14T04:49:02.218Z,1.55
2023-02-14T04:51:29.606Z,1.85
2023-02-14T04:53:56.723Z,1.48
2023-02-14T04:56:26.105Z,1.90
2023-02-14T04:58:54.052Z,2.00
2023-02-14T05:01:21.593Z,1.60
2023-02-14T05:03:49.056Z,2.03
2023-02-14T05:06:16.450Z,1.80
2023-02-14T05:08:43.925Z,2.00
2023-02-14T05:11:11.460Z,1.38
2023-02-14T05:13:38.691Z,1.63
2023-02-14T05:16:06.297Z,1.73
2023-02-14T05:18:33.831Z,2.13
2023-02-14T05:21:02.760Z,1.60
2023-02-14T05:23:30.194Z,1.35
2023-02-14T05:25:57.572Z,2.00
2023-02-14T05:28:24.875Z,2.20
2023-02-14T05:30:52.533Z,1.95
2023-02-14T05:33:19.746Z,1.63
2023-02-14T05:35:47.232Z,1.60
2023-02-14T05:38:14.457Z,1.52
2023-02-14T05:40:41.715Z,1.27
2023-02-14T05:43:09.159Z,1.52
2023-02-14T05:45:36.754Z,1.38
2023-02-14T05:48:06.129Z,1.75
2023-02-14T05:50:33.671Z,1.58
2023-02-14T05:53:01.226Z,1.23
2023-02-14T05:55:28.643Z,1.35
2023-02-14T05:57:55.949Z,1.85
2023-02-14T06:00:24.199Z,1.45
2023-02-14T06:02:51.414Z,1.20
2023-02-14T06:05:20.154Z,1.73
2023-02-14T06:10:18.551Z,1.67
2023-02-14T06:12:46.399Z,1.25
2023-02-14T06:15:14.068Z,1.70
2023-02-14T06:17:41.247Z,1.55
2023-02-14T06:20:09.749Z,1.73
2023-02-14T06:22:37.253Z,1.58
2023-02-14T06:25:04.834Z,1.27
2023-02-14T06:27:32.391Z,1.38
2023-02-14T06:29:59.656Z,1.40
2023-02-14T06:32:26.891Z,1.55
2023-02-14T06:34:53.970Z,1.85
2023-02-14T06:37:21.196Z,1.60
2023-02-14T06:39:48.449Z,1.35
2023-02-14T06:42:15.861Z,1.33
2023-02-14T06:44:43.303Z,1.50
2023-02-14T06:47:10.681Z,1.92
2023-02-14T06:49:39.415Z,1.33
2023-02-14T06:52:06.884Z,2.75
2023-02-14T06:54:34.428Z,1.30
2023-02-14T06:57:01.826Z,2.03
2023-02-14T06:59:29.069Z,1.38
2023-02-14T07:01:56.498Z,1.38
2023-02-14T07:04:23.672Z,1.38
2023-02-14T07:06:50.766Z,1.90
2023-02-14T07:09:18.430Z,1.63
2023-02-14T07:11:45.733Z,1.60
2023-02-14T07:14:13.369Z,1.80
2023-02-14T07:16:40.602Z,1.98
2023-02-14T07:19:07.926Z,1.63
2023-02-14T07:21:35.113Z,1.73
2023-02-14T07:24:02.472Z,1.50
2023-02-14T07:26:29.891Z,1.85
2023-02-14T07:28:57.341Z,1.60
2023-02-14T07:31:24.843Z,1.80
2023-02-14T07:33:52.274Z,2.05
2023-02-14T07:36:19.732Z,1.80
2023-02-14T07:38:47.184Z,2.03
2023-02-14T07:41:14.639Z,2.20
2023-02-14T07:43:41.861Z,2.50
2023-02-14T07:46:09.144Z,2.40
2023-02-14T07:48:36.876Z,2.15
2023-02-14T07:51:04.416Z,1.73
2023-02-14T07:53:31.564Z,2.10
2023-02-14T07:55:58.640Z,3.00
2023-02-14T07:58:25.832Z,2.00
2023-02-14T08:00:53.073Z,2.10
2023-02-14T08:03:20.568Z,1.67
2023-02-14T08:05:57.412Z,1.73
2023-02-14T08:08:26.128Z,1.85
2023-02-14T08:10:53.737Z,1.77
2023-02-14T08:13:21.598Z,1.80
2023-02-14T08:16:09.516Z,2.00
2023-02-14T08:18:38.276Z,1.75
2023-02-14T08:21:06.810Z,2.10
2023-02-14T08:23:34.056Z,1.98
2023-02-14T08:26:01.623Z,1.70
2023-02-14T08:28:29.362Z,1.73
2023-02-14T08:30:57.062Z,1.40
2023-02-14T08:33:24.515Z,2.90
2023-02-14T08:35:52.036Z,1.90
2023-02-14T08:38:19.672Z,1.92
2023-02-14T08:40:47.360Z,1.88
2023-02-14T08:43:14.898Z,1.95
2023-02-14T08:45:42.737Z,1.98
2023-02-14T08:48:11.320Z,1.67
2023-02-14T08:50:39.642Z,1.98
2023-02-14T08:53:08.605Z,1.50
2023-02-14T08:58:03.724Z,1.63
2023-02-14T09:00:31.343Z,2.92
2023-02-14T09:02:58.598Z,1.30
2023-02-14T09:05:26.571Z,1.73
2023-02-14T09:07:56.058Z,1.40
2023-02-14T09:10:24.342Z,1.98
2023-02-14T09:12:52.352Z,1.77
2023-02-14T09:15:19.945Z,2.20
2023-02-14T09:17:47.849Z,1.77
2023-02-14T09:20:15.721Z,1.92
2023-02-14T09:22:43.657Z,1.67
2023-02-14T09:25:11.270Z,1.55
2023-02-14T09:27:39.142Z,2.50
2023-02-14T09:30:07.534Z,1.95
2023-02-14T09:32:35.072Z,1.40
2023-02-14T09:35:20.708Z,1.67
2023-02-14T09:38:06.805Z,1.52
2023-02-14T09:40:34.472Z,1.77
2023-02-14T09:43:04.529Z,1.48
2023-02-14T09:45:33.054Z,1.50
2023-02-14T09:48:00.479Z,1.92
2023-02-14T09:50:30.354Z,2.20
2023-02-14T09:53:00.645Z,1.55
2023-02-14T09:55:32.145Z,1.38
2023-02-14T09:58:08.192Z,1.67
2023-02-14T10:00:38.046Z,1.25
2023-02-14T10:03:23.810Z,1.80
2023-02-14T10:06:11.410Z,2.47
2023-02-14T10:09:07.839Z,1.92
2023-02-14T10:11:35.841Z,2.13
2023-02-14T10:14:11.859Z,1.65
2023-02-14T10:16:48.556Z,1.40
2023-02-14T10:19:27.704Z,1.27
2023-02-14T10:24:22.038Z,1.50
2023-02-14T10:26:50.263Z,1.52
2023-02-14T10:29:18.955Z,2.10
2023-02-14T10:31:55.564Z,1.95
2023-02-14T10:34:38.164Z,1.63
2023-02-14T10:37:11.445Z,2.08
2023-02-14T10:40:01.524Z,1.63
2023-02-14T10:42:34.880Z,1.55
2023-02-14T10:45:09.460Z,1.48
2023-02-14T10:47:36.552Z,1.58
2023-02-14T10:50:09.848Z,2.05
2023-02-14T10:52:37.329Z,1.67
2023-02-14T10:55:26.587Z,1.40
2023-02-14T10:57:59.102Z,1.50
2023-02-14T11:00:28.548Z,1.65
2023-02-14T11:03:00.657Z,1.75
2023-02-14T11:05:30.683Z,1.50
2023-02-14T11:08:00.698Z,1.60
2023-02-14T11:10:31.268Z,1.50
2023-02-14T11:12:58.838Z,1.70
2023-02-14T11:15:29.140Z,2.00
2023-02-14T11:18:15.083Z,2.45
2023-02-14T11:20:42.717Z,1.60
2023-02-14T11:23:20.211Z,1.95
2023-02-14T11:25:55.864Z,1.77
2023-02-14T11:28:23.422Z,2.00
2023-02-14T11:30:51.177Z,2.08
2023-02-14T11:33:24.153Z,1.70
2023-02-14T11:35:53.210Z,1.95
2023-02-14T11:40:54.063Z,1.58
2023-02-14T11:43:30.497Z,1.20
2023-02-14T11:46:25.324Z,1.80
2023-02-14T11:49:02.874Z,1.70
2023-02-14T11:51:32.066Z,1.48
2023-02-14T11:54:04.994Z,1.83
2023-02-14T11:57:05.301Z,1.85
2023-02-14T11:59:42.016Z,1.40
2023-02-14T12:02:17.558Z,2.10
2023-02-14T12:04:46.876Z,1.50
2023-02-14T12:07:16.109Z,1.35
2023-02-14T12:09:43.572Z,1.88
2023-02-14T12:12:19.496Z,1.67
2023-02-14T12:14:46.992Z,1.77
2023-02-14T12:17:20.522Z,1.55
2023-02-14T12:19:47.865Z,1.63
2023-02-14T12:22:20.182Z,1.85
2023-02-14T12:25:06.193Z,1.83
2023-02-14T12:27:51.093Z,1.50
2023-02-14T12:30:21.641Z,2.65
2023-02-14T12:32:53.476Z,2.05
2023-02-14T12:35:41.223Z,2.00
2023-02-14T12:38:17.196Z,2.58
2023-02-14T12:40:44.551Z,2.63
2023-02-14T12:43:30.062Z,2.40
2023-02-14T12:49:17.890Z,1.80
2023-02-14T12:52:08.566Z,1.80
2023-02-14T12:54:35.740Z,1.65
2023-02-14T12:57:27.805Z,1.60
2023-02-14T13:00:12.306Z,1.75
2023-02-14T13:02:46.035Z,2.03
2023-02-14T13:05:13.503Z,2.05
2023-02-14T13:08:05.051Z,2.60
2023-02-14T13:10:51.282Z,2.85
2023-02-14T13:13:18.472Z,2.80
2023-02-14T13:15:48.536Z,2.88
2023-02-14T13:18:15.828Z,2.83
2023-02-14T13:20:46.264Z,3.20
2023-02-14T13:23:16.502Z,2.70
2023-02-14T13:25:49.950Z,2.95
2023-02-14T13:28:18.919Z,2.42
2023-02-14T13:30:46.961Z,2.53
2023-02-14T13:33:14.211Z,2.53
2023-02-14T13:35:41.890Z,1.73
2023-02-14T13:38:13.730Z,1.80
2023-02-14T13:40:41.334Z,2.00
2023-02-14T13:43:09.004Z,2.53
2023-02-14T13:45:37.694Z,2.20
2023-02-14T13:48:12.453Z,10.60
2023-02-14T13:50:39.950Z,11.88
2023-02-14T13:53:13.825Z,6.45
2023-02-14T13:55:43.872Z,3.45
2023-02-14T13:58:15.967Z,2.65
2023-02-14T14:00:47.057Z,2.40
2023-02-14T14:03:16.007Z,2.65
2023-02-14T14:08:18.180Z,2.80
2023-02-14T14:10:55.272Z,2.60
2023-02-14T14:13:40.599Z,3.25
2023-02-14T14:16:29.030Z,2.45
2023-02-14T14:19:01.017Z,3.65
2023-02-14T14:21:38.892Z,3.10
2023-02-14T14:24:17.995Z,2.78
2023-02-14T14:26:46.619Z,3.70
2023-02-14T14:29:19.523Z,13.07
2023-02-14T14:31:47.389Z,28.27
2023-02-14T14:34:16.267Z,11.65
2023-02-14T14:36:44.020Z,8.65
2023-02-14T14:39:11.555Z,9.23
2023-02-14T14:41:39.502Z,10.82
2023-02-14T14:44:07.294Z,8.93
2023-02-14T14:46:34.720Z,10.02
2023-02-14T14:49:02.441Z,7.88
2023-02-14T14:51:31.095Z,5.82
2023-02-14T14:56:37.041Z,3.42
2023-02-14T14:59:22.574Z,3.22
2023-02-14T15:01:54.511Z,2.90
2023-02-14T15:04:28.207Z,3.50
2023-02-14T15:06:56.514Z,3.28
2023-02-14T15:09:29.528Z,2.63
2023-02-14T15:12:15.889Z,3.38
2023-02-14T15:14:44.678Z,3.28
2023-02-14T15:17:18.998Z,3.85
2023-02-14T15:19:48.720Z,4.22
2023-02-14T15:22:20.468Z,3.95
2023-02-14T15:24:48.378Z,3.40
2023-02-14T15:27:16.956Z,4.47
2023-02-14T15:30:00.776Z,6.32
2023-02-14T15:32:30.990Z,7.13
2023-02-14T15:34:59.598Z,6.95
2023-02-14T15:37:26.821Z,4.18
2023-02-14T15:39:58.388Z,4.00
2023-02-14T15:42:29.338Z,4.05
2023-02-14T15:45:15.402Z,3.80
2023-02-14T15:47:43.881Z,4.57
2023-02-14T15:50:16.018Z,2.80
2023-02-14T15:52:43.540Z,3.40
2023-02-14T15:55:11.668Z,3.45
2023-02-14T15:57:39.231Z,2.92
2023-02-14T16:00:16.936Z,3.15
2023-02-14T16:02:48.050Z,4.20
2023-02-14T16:05:17.841Z,3.47
2023-02-14T16:08:00.283Z,3.25
2023-02-14T16:10:28.720Z,3.38
2023-02-14T16:13:00.809Z,3.00
2023-02-14T16:15:29.523Z,3.30
2023-02-14T16:17:56.777Z,4.05
2023-02-14T16:20:45.264Z,3.72
2023-02-14T16:23:23.408Z,3.33
2023-02-14T16:25:51.281Z,4.10
2023-02-14T16:28:18.511Z,3.63
2023-02-14T16:30:46.640Z,3.22
2023-02-14T16:33:21.493Z,3.07
2023-02-14T16:35:49.654Z,3.75
2023-02-14T16:38:18.740Z,3.58
2023-02-14T16:40:55.022Z,3.72
2023-02-14T16:43:22.182Z,3.97
2023-02-14T16:45:49.386Z,3.83
2023-02-14T16:48:17.077Z,3.83
2023-02-14T16:50:45.143Z,4.30
2023-02-14T16:53:24.485Z,4.03
2023-02-14T16:55:52.889Z,3.33
2023-02-14T16:58:22.204Z,3.70
2023-02-14T17:00:49.957Z,3.97
2023-02-14T17:03:17.584Z,4.05
2023-02-14T17:05:44.856Z,4.60
2023-02-14T17:08:13.235Z,4.28
2023-02-14T17:10:42.126Z,4.15
2023-02-14T17:13:10.086Z,4.63
2023-02-14T17:15:38.382Z,3.50
2023-02-14T17:18:09.804Z,4.13
2023-02-14T17:20:37.323Z,4.50
2023-02-14T17:23:04.846Z,4.68
2023-02-14T17:25:32.252Z,4.72
2023-02-14T17:28:01.076Z,4.93
2023-02-14T17:30:28.621Z,5.13
2023-02-14T17:32:55.800Z,5.22
2023-02-14T17:35:23.180Z,5.07
2023-02-14T17:37:50.432Z,4.45
2023-02-14T17:40:17.640Z,4.88
2023-02-14T17:42:45.974Z,5.07
2023-02-14T17:45:14.016Z,5.05
2023-02-14T17:47:43.337Z,4.68
2023-02-14T17:50:11.476Z,5.57
2023-02-14T17:52:39.212Z,5.28
2023-02-14T17:55:07.028Z,5.28
2023-02-14T17:57:35.866Z,5.72
2023-02-14T18:00:05.703Z,5.13
2023-02-14T18:02:33.797Z,5.32
2023-02-14T18:05:01.332Z,5.13
2023-02-14T18:07:29.015Z,5.03
2023-02-14T18:09:56.461Z,5.57
2023-02-14T18:12:24.602Z,4.88
2023-02-14T18:14:55.178Z,5.22
2023-02-14T18:17:23.062Z,5.35
2023-02-14T18:19:50.953Z,5.73
2023-02-14T18:22:18.496Z,5.97
2023-02-14T18:24:45.920Z,5.38
2023-02-14T18:27:16.114Z,5.40
2023-02-14T18:29:44.035Z,5.50
2023-02-14T18:32:11.564Z,5.90
2023-02-14T18:34:39.544Z,5.45
2023-02-14T18:37:07.334Z,5.10
2023-02-14T18:39:34.979Z,5.80
2023-02-14T18:42:02.434Z,6.20
2023-02-14T18:44:29.929Z,5.60
2023-02-14T18:46:57.334Z,5.63
2023-02-14T18:49:25.053Z,5.30
2023-02-14T18:51:52.904Z,5.45
2023-02-14T18:54:20.601Z,5.32
2023-02-14T18:56:48.304Z,5.22
2023-02-14T18:59:16.889Z,5.45
2023-02-14T19:01:45.030Z,3.90
2023-02-14T19:04:14.814Z,5.03
2023-02-14T19:06:43.559Z,5.50
2023-02-14T19:09:12.655Z,5.47
2023-02-14T19:14:10.373Z,4.32
2023-02-14T19:16:42.120Z,4.22
2023-02-14T19:19:10.419Z,3.72
2023-02-14T19:21:38.278Z,3.63
2023-02-14T19:24:09.065Z,3.10
2023-02-14T19:26:40.152Z,3.00
2023-02-14T19:29:09.433Z,3.60
2023-02-14T19:31:37.968Z,3.70
2023-02-14T19:36:36.397Z,2.97
2023-02-14T19:39:04.209Z,2.85
2023-02-14T19:41:34.374Z,3.00
2023-02-14T19:44:04.692Z,2.95
2023-02-14T19:46:32.695Z,2.60
2023-02-14T19:49:01.404Z,2.42
2023-02-14T19:51:30.539Z,2.53
2023-02-14T19:53:59.563Z,2.50
2023-02-14T19:56:29.404Z,2.42
2023-02-14T19:58:57.324Z,2.42
2023-02-14T20:01:26.980Z,2.40
2023-02-14T20:03:54.545Z,2.40
2023-02-14T20:06:22.947Z,2.25
2023-02-14T20:08:50.592Z,1.77
2023-02-14T20:11:30.538Z,2.15
2023-02-14T20:13:59.447Z,2.30
2023-02-14T20:16:28.093Z,2.20
2023-02-14T20:18:55.804Z,1.98
2023-02-14T20:21:25.558Z,1.80
2023-02-14T20:23:54.154Z,1.90
2023-02-14T20:26:21.889Z,1.83
2023-02-14T20:28:49.563Z,1.77
2023-02-14T20:31:19.544Z,2.00
2023-02-14T20:33:47.923Z,1.92
2023-02-14T20:36:15.427Z,1.33
2023-02-14T20:38:42.920Z,2.33
2023-02-14T20:41:12.047Z,1.95
2023-02-14T20:43:39.669Z,1.88
2023-02-14T20:46:07.548Z,2.30
2023-02-14T20:48:35.563Z,2.35
2023-02-14T20:51:12.950Z,2.70
2023-02-14T20:53:41.010Z,2.72
2023-02-14T20:56:08.838Z,2.33
2023-02-14T20:58:37.502Z,2.33
2023-02-14T21:01:08.836Z,2.55
2023-02-14T21:03:37.418Z,2.20
2023-02-14T21:06:06.748Z,1.95
2023-02-14T21:11:02.907Z,2.58
2023-02-14T21:13:30.926Z,2.17
2023-02-14T21:16:02.713Z,2.60
2023-02-14T21:18:30.838Z,2.40
2023-02-14T21:21:04.725Z,2.45
2023-02-14T21:23:32.649Z,2.70
2023-02-14T21:26:00.796Z,2.65
2023-02-14T21:28:28.962Z,2.85
2023-02-14T21:31:04.029Z,1.67
2023-02-14T21:33:32.932Z,2.50
2023-02-14T21:38:28.251Z,2.58
2023-02-14T21:41:04.934Z,2.22
2023-02-14T21:43:37.979Z,2.38
2023-02-14T21:46:06.333Z,2.33
2023-02-14T21:48:52.717Z,2.17
2023-02-14T21:51:21.678Z,2.50
2023-02-14T21:53:48.920Z,2.38
2023-02-14T21:56:19.665Z,2.50
2023-02-14T21:58:48.076Z,2.65
2023-02-14T22:01:17.219Z,2.38
2023-02-14T22:03:47.258Z,2.53
2023-02-14T22:06:14.683Z,2.40
2023-02-14T22:08:42.431Z,2.70
2023-02-14T22:11:11.244Z,2.30
2023-02-14T22:13:38.776Z,2.08
2023-02-14T22:16:07.269Z,2.42
2023-02-14T22:21:04.164Z,1.83
2023-02-14T22:23:31.952Z,2.20
2023-02-14T22:26:17.850Z,2.30
2023-02-14T22:28:46.669Z,2.33
2023-02-14T22:31:14.690Z,2.40
2023-02-14T22:33:42.472Z,2.50
2023-02-14T22:36:10.437Z,2.13
2023-02-14T22:38:38.596Z,3.00
2023-02-14T22:41:13.061Z,1.98
2023-02-14T22:43:40.729Z,2.60
2023-02-14T22:46:28.450Z,3.00
2023-02-14T22:48:56.140Z,2.85
2023-02-14T22:51:23.329Z,2.13
2023-02-14T22:53:51.960Z,2.33
2023-02-14T22:56:20.325Z,1.85
2023-02-14T22:58:47.492Z,2.72
2023-02-14T23:01:15.753Z,2.38
2023-02-14T23:03:43.606Z,2.10
2023-02-14T23:06:11.255Z,2.45
2023-02-14T23:08:40.242Z,2.38
2023-02-14T23:11:08.466Z,2.97
2023-02-14T23:13:54.407Z,2.50
2023-02-14T23:16:40.636Z,2.78
2023-02-14T23:19:30.605Z,3.47
2023-02-14T23:21:58.651Z,3.90
2023-02-14T23:24:25.852Z,3.55
2023-02-14T23:26:54.587Z,3.42
2023-02-14T23:29:21.852Z,2.80
2023-02-14T23:31:49.160Z,3.13
2023-02-14T23:34:16.454Z,3.53
2023-02-14T23:36:44.220Z,3.75
2023-02-14T23:39:11.675Z,3.72
2023-02-14T23:41:47.784Z,3.80
2023-02-14T23:44:19.671Z,3.35
2023-02-14T23:46:47.836Z,2.95
2023-02-14T23:49:15.931Z,3.53
2023-02-14T23:51:43.729Z,3.50
2023-02-14T23:54:11.244Z,2.20
2023-02-14T23:56:38.826Z,3.33
2023-02-14T23:59:06.630Z,3.60
